Valley City, ND

8:08 PM CDT on July 23, 2014 (GMT -0500)
Valley City (KBAC) Elev 1401 ft | 46.94 °N, 98.02 °W | Change Station

Current weather conditions updated 13 minutes ago

Clear
Clear
73 °F
Feels Like 73 °F
N
7
Wind Variable Wind from ESE

Tomorrow is forecast to be Warmer than today. Showers and thunderstorms late tomorrow night.

Today
High -- | Low -- °F
--% Chance of Precip.
Yesterday
High -- | Low -- °F
Precip. -- in
6:01 AM 9:15 PM
Waning Crescent, 8% visible
Pressure 30.19 in
Visibility 10.0 miles
Clouds Clear
Dew Point 59 °F
Humidity 61%
Rainfall 0.00 in
Snow Depth Not available.
UV 1 out of 12
Pollen 7.00 out of 12
Air Quality Not available.
Flu Activity Not available.
METAR KBAC 240055Z AUTO 11006KT 10SM CLR 23/15 A3019 RMK AO2

More Conditions Fewer Conditions

Pressure 30.19 in
Visibility 10.0 miles
Clouds Clear
Dew Point 59 °F
Humidity 61%
Rainfall 0.00 in
Snow Depth Not available.
UV 1 out of 12
Pollen 7.00 out of 12
Air Quality Not available.
Flu Activity Not available.
METAR KBAC 240055Z AUTO 11006KT 10SM CLR 23/15 A3019 RMK AO2

More Conditions Fewer Conditions

10-Day Weather Forecast

Almanac

Astronomy

Jul. 23, 2014 Rise Set
Actual Time 6:01 AM CDT 9:15 PM CDT
Civil Twilight 5:24 AM CDT 9:51 PM CDT
Nautical Twilight 4:36 AM CDT 10:39 PM CDT
Astronomical Twilight 3:35 AM CDT 11:39 PM CDT
Moon 3:22 AM CDT (7/23) 6:43 PM CDT (7/23)
Length of Visible Light 16h 27m
Length of Day
15h 14m
Tomorrow will be 2m 15s shorter.
Waning Crescent, 8% of the Moon is Illuminated
Today
Waning Crescent
Jul 26
New
Aug 3
First Quarter
Aug 10
Full
Aug 17
Last Quarter

Today's Extremes

State Highs State Lows

Community

WunderPhotos

Upload Photos

1,736,839 photos uploaded!

Nearby

Snow Depth

Station Depth Elevation
No new snow has been reported.

Earthquake Activity

City Distance Mag. Time & Date
No recent earthquake activity has been reported nearby.
Minimum magnitude displayed is 2.5.

Coastal Water Temperatures

Place Temperature
No Stations Reporting

Nearby Weather Stations

Station Location Temp. Heat Index Dew Point Humidity Wind Precip. Elev Updated Type
Valley City State University, Valley City, ND 76.4 °F 78 °F - 57% NE  at  2.0 mph 0.00 in / hr 1220 ft 8:01 PM CDT Normal

Show More Stations Show Fewer Stations